Time;durP1;ratioP1;P1;durP2;ratioP2;P2;SDS_P1;SDS_P2;PMS_P1;PMS_P2;Temp;Humidity;BMP_temperature;BMP_pressure;BME280_temperature;BME280_humidity;BME280_pressure;Samples;Min_cycle;Max_cycle;Signal;HPM_P1;HPM_P2
2021/05/24 00:01:14;;;;;;;5.10;0.90;;;9.20;99.90;;;;;;4987119;28;20034;-58
2021/05/24 00:03:40;;;;;;;2.92;0.90;;;9.20;99.90;;;;;;4987199;28;20030;-58
2021/05/24 00:06:05;;;;;;;5.00;1.05;;;9.20;99.90;;;;;;4989456;28;20097;-57
2021/05/24 00:08:31;;;;;;;3.47;1.20;;;9.20;99.90;;;;;;4991307;28;20034;-59
2021/05/24 00:10:57;;;;;;;2.42;0.85;;;9.20;99.90;;;;;;4993115;28;20053;-59
2021/05/24 00:13:23;;;;;;;1.77;1.08;;;9.20;99.90;;;;;;4991188;28;20510;-54
2021/05/24 00:15:53;;;;;;;4.43;1.13;;;9.20;99.90;;;;;;4988890;28;20011;-59
2021/05/24 00:18:18;;;;;;;5.03;1.10;;;9.20;99.90;;;;;;4986664;28;20029;-55
2021/05/24 00:21:00;;;;;;;2.38;1.15;;;9.20;99.90;;;;;;4989808;28;20031;-55
2021/05/24 00:23:26;;;;;;;2.85;0.98;;;9.20;99.90;;;;;;4981780;28;20488;-59
2021/05/24 00:25:52;;;;;;;3.30;1.00;;;9.20;99.90;;;;;;4989209;28;20030;-57
2021/05/24 00:28:18;;;;;;;6.07;1.00;;;9.30;99.90;;;;;;4987117;28;20658;-57
2021/05/24 00:30:46;;;;;;;4.65;0.95;;;9.30;99.90;;;;;;4989710;28;20042;-57
2021/05/24 00:33:12;;;;;;;2.22;0.73;;;9.20;99.90;;;;;;4988048;28;20034;-56
2021/05/24 00:35:38;;;;;;;3.35;0.80;;;9.20;99.90;;;;;;4988157;28;20034;-55
2021/05/24 00:38:05;;;;;;;2.75;1.15;;;9.20;99.90;;;;;;4987611;28;20177;-58
2021/05/24 00:40:32;;;;;;;2.58;0.98;;;9.30;99.90;;;;;;4988985;28;20085;-58
2021/05/24 00:42:58;;;;;;;2.00;1.00;;;9.30;99.90;;;;;;4988049;28;20096;-55
2021/05/24 00:45:24;;;;;;;0.80;0.70;;;9.30;99.90;;;;;;4988186;28;20056;-56
2021/05/24 00:47:50;;;;;;;2.42;0.98;;;9.30;99.90;;;;;;4988837;28;20045;-56
2021/05/24 00:50:16;;;;;;;3.70;1.05;;;9.30;99.90;;;;;;4964490;28;20519;-54
2021/05/24 00:52:42;;;;;;;3.50;0.80;;;9.30;99.90;;;;;;4986404;28;20026;-56
2021/05/24 00:55:09;;;;;;;3.38;0.88;;;9.40;99.90;;;;;;4973111;28;20396;-55
2021/05/24 00:57:36;;;;;;;2.45;0.90;;;9.40;99.90;;;;;;4988236;28;20612;-55
2021/05/24 01:00:05;;;;;;;4.25;1.10;;;9.40;99.90;;;;;;4985399;28;20101;-57
2021/05/24 01:02:30;;;;;;;2.72;0.98;;;9.40;99.90;;;;;;4985219;28;20038;-57
2021/05/24 01:04:56;;;;;;;5.50;1.05;;;9.40;99.90;;;;;;4984204;28;20404;-57
2021/05/24 01:07:22;;;;;;;2.28;0.73;;;9.40;99.90;;;;;;4988043;28;20092;-54
2021/05/24 01:09:47;;;;;;;1.60;0.82;;;9.40;99.90;;;;;;4988581;28;20034;-59
2021/05/24 01:12:13;;;;;;;3.92;1.00;;;9.40;99.90;;;;;;4991170;28;20857;-58
2021/05/24 01:14:39;;;;;;;6.53;0.85;;;9.30;99.90;;;;;;4991321;28;20030;-57
2021/05/24 01:17:04;;;;;;;8.60;1.02;;;9.20;99.90;;;;;;4991117;28;20022;-58
2021/05/24 01:19:30;;;;;;;2.08;0.80;;;9.20;99.90;;;;;;4989558;28;20068;-54
2021/05/24 01:21:56;;;;;;;3.60;0.95;;;9.30;99.90;;;;;;4991386;28;20070;-57
2021/05/24 01:24:22;;;;;;;2.17;0.90;;;9.30;99.90;;;;;;4988968;28;20038;-57
2021/05/24 01:26:48;;;;;;;4.97;1.13;;;9.30;99.90;;;;;;4991407;28;20030;-57
2021/05/24 01:29:15;;;;;;;2.75;1.00;;;9.30;99.90;;;;;;4988745;28;20034;-55
2021/05/24 01:31:42;;;;;;;5.38;0.88;;;9.30;99.90;;;;;;4993031;28;20431;-55
2021/05/24 01:34:09;;;;;;;2.20;0.90;;;9.40;99.90;;;;;;4991276;28;20092;-54
2021/05/24 01:36:35;;;;;;;2.88;0.93;;;9.40;99.90;;;;;;4990101;28;20117;-58
2021/05/24 01:39:00;;;;;;;4.45;1.10;;;9.40;99.90;;;;;;4991949;28;20491;-57
2021/05/24 01:41:26;;;;;;;11.25;1.45;;;9.40;99.90;;;;;;4988956;28;20030;-57
2021/05/24 01:43:52;;;;;;;4.05;1.15;;;9.50;99.90;;;;;;4990478;28;20038;-57
2021/05/24 01:46:18;;;;;;;3.00;0.75;;;9.50;99.90;;;;;;4996717;28;20034;-53
2021/05/24 01:48:43;;;;;;;2.90;0.82;;;9.50;99.90;;;;;;4999690;28;20118;-55
2021/05/24 01:51:09;;;;;;;2.92;0.90;;;9.50;99.90;;;;;;4993505;28;20101;-57
2021/05/24 01:53:36;;;;;;;3.90;0.95;;;9.50;99.90;;;;;;4992401;28;20035;-57
2021/05/24 01:56:03;;;;;;;3.38;0.80;;;9.40;99.90;;;;;;4971594;28;20046;-56
2021/05/24 01:58:30;;;;;;;1.50;0.57;;;9.50;99.90;;;;;;4987888;28;20045;-58
2021/05/24 02:01:10;;;;;;;4.80;0.93;;;9.50;99.90;;;;;;4988976;28;20097;-55
2021/05/24 02:03:37;;;;;;;1.40;0.65;;;9.50;99.90;;;;;;4989204;28;20387;-57
2021/05/24 02:06:03;;;;;;;3.67;0.95;;;9.40;99.90;;;;;;4989101;28;20042;-57
2021/05/24 02:08:30;;;;;;;5.88;0.80;;;9.40;99.90;;;;;;4987098;28;20042;-57
2021/05/24 02:10:55;;;;;;;6.93;1.15;;;9.40;99.90;;;;;;4987260;28;20034;-56
2021/05/24 02:13:21;;;;;;;4.43;0.90;;;9.40;99.90;;;;;;4987955;28;20061;-57
2021/05/24 02:15:47;;;;;;;2.25;0.80;;;9.40;99.90;;;;;;4985676;28;20428;-54
2021/05/24 02:18:13;;;;;;;2.42;0.68;;;9.40;99.90;;;;;;4986513;28;20516;-57
2021/05/24 02:20:39;;;;;;;2.13;0.70;;;9.40;99.90;;;;;;4988313;28;20038;-56
2021/05/24 02:23:06;;;;;;;3.72;1.10;;;9.50;99.90;;;;;;4990966;28;20045;-59
2021/05/24 02:25:32;;;;;;;2.70;0.82;;;9.50;99.90;;;;;;5010001;28;20057;-59
2021/05/24 02:27:58;;;;;;;4.00;0.93;;;9.50;99.90;;;;;;5001592;28;20014;-59
2021/05/24 02:30:25;;;;;;;2.70;1.10;;;9.50;99.90;;;;;;4996544;28;20621;-54
2021/05/24 02:32:51;;;;;;;1.58;1.05;;;9.50;99.90;;;;;;4987781;28;20014;-58
2021/05/24 02:35:19;;;;;;;1.77;0.57;;;9.50;99.90;;;;;;4987045;28;20022;-58
2021/05/24 02:37:46;;;;;;;2.35;0.85;;;9.50;99.90;;;;;;4990326;28;20034;-54
2021/05/24 02:40:14;;;;;;;2.72;0.70;;;9.50;99.90;;;;;;4988107;28;20570;-56
2021/05/24 02:42:39;;;;;;;2.50;0.60;;;9.50;99.90;;;;;;4986590;28;20096;-53
2021/05/24 02:45:08;;;;;;;3.97;0.75;;;9.50;99.90;;;;;;4988478;28;20499;-57
2021/05/24 02:47:34;;;;;;;2.10;0.73;;;9.50;99.90;;;;;;4989580;28;20104;-58
2021/05/24 02:49:59;;;;;;;4.57;0.88;;;9.50;99.90;;;;;;4988537;28;20446;-59
2021/05/24 02:52:25;;;;;;;3.47;0.80;;;9.50;99.90;;;;;;4989030;28;20109;-59
2021/05/24 02:54:51;;;;;;;3.08;1.10;;;9.40;99.90;;;;;;4985898;28;20023;-58
2021/05/24 02:57:17;;;;;;;2.63;0.93;;;9.30;99.90;;;;;;4972190;28;20136;-57
2021/05/24 02:59:42;;;;;;;2.30;0.80;;;9.30;99.90;;;;;;4985463;28;20037;-57
2021/05/24 03:02:12;;;;;;;1.90;0.80;;;9.40;99.90;;;;;;4989525;28;20030;-58
2021/05/24 03:04:38;;;;;;;2.72;0.90;;;9.40;99.90;;;;;;4983790;28;20108;-58
2021/05/24 03:07:04;;;;;;;3.72;1.00;;;9.40;99.90;;;;;;4988329;28;20088;-56
2021/05/24 03:09:31;;;;;;;3.33;0.82;;;9.30;99.90;;;;;;4987086;28;20031;-59
2021/05/24 03:11:56;;;;;;;2.10;1.00;;;9.30;99.90;;;;;;4988934;28;20034;-56
2021/05/24 03:14:22;;;;;;;2.75;1.13;;;9.30;99.90;;;;;;4986975;28;20514;-57
2021/05/24 03:16:47;;;;;;;2.63;0.82;;;9.30;99.90;;;;;;4987900;28;20066;-54
2021/05/24 03:19:13;;;;;;;4.47;0.85;;;9.40;99.90;;;;;;4987275;28;20033;-55
2021/05/24 03:21:38;;;;;;;3.92;1.30;;;9.40;99.90;;;;;;4987154;28;20030;-55
2021/05/24 03:24:05;;;;;;;1.60;1.00;;;9.40;99.90;;;;;;4986188;28;20037;-57
2021/05/24 03:26:30;;;;;;;3.20;0.85;;;9.40;99.90;;;;;;4987194;28;20030;-57
2021/05/24 03:28:56;;;;;;;2.20;0.63;;;9.40;99.90;;;;;;4986426;28;20484;-57
2021/05/24 03:31:21;;;;;;;1.23;0.60;;;9.50;99.90;;;;;;4986031;28;20038;-58
2021/05/24 03:33:47;;;;;;;2.80;0.95;;;9.50;99.90;;;;;;4986995;28;20034;-54
2021/05/24 03:36:12;;;;;;;1.55;0.90;;;9.50;99.90;;;;;;4987035;28;20018;-54
2021/05/24 03:38:38;;;;;;;4.32;0.90;;;9.50;99.90;;;;;;4986299;28;20065;-56
2021/05/24 03:41:04;;;;;;;3.33;0.75;;;9.40;99.90;;;;;;4987972;28;20041;-55
2021/05/24 03:43:30;;;;;;;2.55;0.80;;;9.50;99.90;;;;;;4986272;28;20735;-54
2021/05/24 03:45:56;;;;;;;3.85;1.10;;;9.50;99.90;;;;;;4987836;28;20030;-57
2021/05/24 03:48:22;;;;;;;3.22;0.88;;;9.50;99.90;;;;;;4986087;28;20046;-56
2021/05/24 03:50:48;;;;;;;4.95;1.00;;;9.50;99.90;;;;;;4988710;28;20026;-54
2021/05/24 03:53:13;;;;;;;1.92;0.98;;;9.50;99.90;;;;;;4985611;28;20031;-57
2021/05/24 03:55:39;;;;;;;2.85;0.65;;;9.50;99.90;;;;;;4985233;28;20479;-58
2021/05/24 03:58:05;;;;;;;3.65;0.90;;;9.50;99.90;;;;;;4969301;28;20050;-56
2021/05/24 04:00:31;;;;;;;2.42;0.90;;;9.60;99.90;;;;;;4986908;28;20030;-55
2021/05/24 04:02:57;;;;;;;1.83;0.70;;;9.70;99.90;;;;;;4985755;28;20364;-58
2021/05/24 04:05:30;;;;;;;1.90;0.70;;;9.70;99.90;;;;;;4981974;28;20023;-57
2021/05/24 04:07:57;;;;;;;3.35;1.38;;;9.80;99.90;;;;;;4985816;28;20030;-58
2021/05/24 04:10:33;;;;;;;4.32;1.98;;;9.80;99.90;;;;;;4987226;28;20069;-57
2021/05/24 04:12:58;;;;;;;3.25;1.02;;;9.90;99.90;;;;;;4985479;28;20031;-56
2021/05/24 04:15:25;;;;;;;4.53;0.98;;;10.00;99.90;;;;;;4986853;28;20088;-56
2021/05/24 04:17:52;;;;;;;2.03;0.90;;;10.10;99.90;;;;;;4986586;28;20085;-57
2021/05/24 04:20:17;;;;;;;4.75;0.95;;;10.20;99.90;;;;;;4986261;28;20117;-56
2021/05/24 04:22:44;;;;;;;3.50;0.98;;;10.30;99.90;;;;;;4986190;28;20113;-54
2021/05/24 04:25:10;;;;;;;3.42;0.98;;;10.40;99.90;;;;;;4986895;28;20089;-55
2021/05/24 04:27:36;;;;;;;4.13;1.00;;;10.60;99.90;;;;;;4984416;28;20036;-58
2021/05/24 04:30:04;;;;;;;4.57;0.70;;;10.70;99.90;;;;;;4986984;28;20026;-58
2021/05/24 04:32:29;;;;;;;2.45;0.70;;;10.80;99.90;;;;;;4990505;28;20018;-57
2021/05/24 04:34:55;;;;;;;8.48;1.08;;;11.20;99.90;;;;;;4987858;28;20069;-54
2021/05/24 04:37:20;;;;;;;3.33;1.15;;;12.20;99.90;;;;;;4986905;28;20053;-60
2021/05/24 04:39:46;;;;;;;2.80;1.23;;;13.80;99.90;;;;;;4986127;28;20034;-58
2021/05/24 04:42:13;;;;;;;2.95;0.93;;;14.80;99.90;;;;;;4988687;28;20068;-57
2021/05/24 04:44:39;;;;;;;1.75;0.90;;;14.70;99.80;;;;;;4990975;28;20026;-60
2021/05/24 04:47:05;;;;;;;2.05;0.80;;;14.50;99.80;;;;;;4991731;28;20038;-59
2021/05/24 04:49:31;;;;;;;2.95;1.02;;;14.00;99.90;;;;;;4985227;28;20038;-55
2021/05/24 04:51:58;;;;;;;2.65;1.15;;;13.60;99.90;;;;;;4987044;28;20615;-58
2021/05/24 04:54:24;;;;;;;4.50;1.20;;;13.50;99.90;;;;;;4986717;28;20022;-55
2021/05/24 04:56:50;;;;;;;3.58;0.80;;;13.50;99.90;;;;;;4970019;28;20091;-54
2021/05/24 04:59:15;;;;;;;4.15;1.27;;;14.40;99.90;;;;;;4985993;28;20030;-56
2021/05/24 05:01:41;;;;;;;4.25;1.42;;;16.00;98.50;;;;;;4985699;28;20109;-56
2021/05/24 05:04:07;;;;;;;8.85;2.22;;;17.10;95.60;;;;;;4981401;28;20072;-59
2021/05/24 05:06:33;;;;;;;4.57;1.10;;;17.90;93.00;;;;;;4985853;28;20027;-58
2021/05/24 05:08:58;;;;;;;3.35;1.40;;;18.00;92.80;;;;;;4988900;28;20105;-60
2021/05/24 05:11:24;;;;;;;6.03;1.58;;;17.80;91.00;;;;;;4990353;28;20522;-54
2021/05/24 05:13:50;;;;;;;3.95;1.20;;;17.20;92.40;;;;;;4989179;28;20041;-55
2021/05/24 05:16:15;;;;;;;4.15;1.40;;;16.60;93.30;;;;;;4990255;28;20046;-58
2021/05/24 05:18:41;;;;;;;3.67;1.50;;;16.80;94.00;;;;;;4989047;28;20022;-55
2021/05/24 05:21:06;;;;;;;2.45;0.90;;;16.70;92.60;;;;;;4989708;28;20041;-58
2021/05/24 05:23:32;;;;;;;5.30;1.52;;;16.70;93.10;;;;;;4984339;28;20096;-56
2021/05/24 05:25:58;;;;;;;3.40;1.20;;;16.20;93.20;;;;;;4989612;28;20072;-56
2021/05/24 05:28:24;;;;;;;2.22;1.30;;;15.70;94.10;;;;;;4982104;28;20038;-58
2021/05/24 05:30:50;;;;;;;3.03;1.02;;;15.10;94.60;;;;;;4994521;28;20073;-56
2021/05/24 05:33:16;;;;;;;2.50;0.80;;;14.60;96.20;;;;;;4990395;28;20077;-59
2021/05/24 05:35:46;;;;;;;1.70;0.95;;;14.40;97.50;;;;;;4991127;28;20026;-56
2021/05/24 05:38:12;;;;;;;3.30;1.20;;;14.20;97.90;;;;;;4981803;28;20034;-58
2021/05/24 05:40:38;;;;;;;2.75;1.02;;;14.00;98.30;;;;;;4989195;28;20037;-57
2021/05/24 05:43:03;;;;;;;2.47;0.82;;;13.80;98.90;;;;;;4997785;28;20026;-57
2021/05/24 05:45:29;;;;;;;2.38;0.80;;;13.90;99.10;;;;;;4990745;28;20077;-57
2021/05/24 05:47:54;;;;;;;7.45;1.17;;;13.70;99.50;;;;;;5004250;28;20030;-56
2021/05/24 05:50:20;;;;;;;1.70;0.82;;;13.70;99.90;;;;;;4996157;28;20800;-57
2021/05/24 05:52:46;;;;;;;4.47;1.05;;;13.70;99.90;;;;;;4991346;28;20030;-57
2021/05/24 05:55:11;;;;;;;4.25;0.88;;;13.70;99.90;;;;;;4993114;28;20030;-56
2021/05/24 05:57:37;;;;;;;1.15;0.90;;;13.70;99.90;;;;;;4974610;28;20118;-58
2021/05/24 06:00:06;;;;;;;1.80;0.80;;;13.90;99.90;;;;;;4997735;28;20057;-58
2021/05/24 06:02:32;;;;;;;3.22;0.80;;;14.20;99.20;;;;;;4993651;28;20054;-57
2021/05/24 06:04:57;;;;;;;2.60;0.82;;;14.50;97.90;;;;;;4991691;28;20070;-56
2021/05/24 06:07:23;;;;;;;5.22;1.10;;;14.80;97.70;;;;;;4988211;28;20050;-56
2021/05/24 06:09:48;;;;;;;2.15;0.82;;;15.10;96.80;;;;;;4990354;28;20038;-59
2021/05/24 06:12:15;;;;;;;7.30;1.65;;;15.70;97.10;;;;;;4999601;28;20085;-56
2021/05/24 06:14:41;;;;;;;3.35;1.08;;;16.00;95.70;;;;;;4987486;28;20034;-57
2021/05/24 06:17:06;;;;;;;3.38;1.15;;;16.10;94.70;;;;;;4995994;28;20028;-56
2021/05/24 06:19:32;;;;;;;2.35;1.05;;;16.30;94.50;;;;;;4994466;28;20436;-58
2021/05/24 06:21:57;;;;;;;2.42;1.10;;;16.40;94.10;;;;;;4998871;28;20103;-57
2021/05/24 06:24:23;;;;;;;1.88;1.30;;;16.40;94.60;;;;;;4993524;28;20391;-56
2021/05/24 06:26:49;;;;;;;3.72;1.27;;;16.60;93.50;;;;;;4984945;28;20527;-52
2021/05/24 06:29:21;;;;;;;3.83;1.23;;;16.90;92.90;;;;;;4990525;28;20027;-57
2021/05/24 06:31:51;;;;;;;5.00;1.40;;;17.20;93.40;;;;;;4999252;28;20084;-58
2021/05/24 06:34:16;;;;;;;3.38;1.10;;;17.20;92.20;;;;;;4994825;28;20088;-57
2021/05/24 06:36:42;;;;;;;3.88;1.50;;;17.20;92.60;;;;;;5001226;28;20034;-58
2021/05/24 06:39:08;;;;;;;5.00;1.00;;;17.00;91.60;;;;;;4985394;28;20088;-55
2021/05/24 06:41:33;;;;;;;4.47;1.50;;;16.80;92.80;;;;;;5002449;28;20496;-56
2021/05/24 06:43:59;;;;;;;1.88;1.08;;;17.40;92.50;;;;;;4999715;28;20023;-58
2021/05/24 06:46:25;;;;;;;3.25;1.15;;;19.30;90.70;;;;;;4995505;28;20598;-58
2021/05/24 06:48:51;;;;;;;1.15;0.73;;;21.30;79.40;;;;;;4999437;28;20025;-58
2021/05/24 06:51:17;;;;;;;4.03;0.85;;;22.70;73.30;;;;;;4991969;28;20106;-57
2021/05/24 06:53:42;;;;;;;3.60;0.88;;;23.80;63.60;;;;;;4999905;28;20034;-58
2021/05/24 06:56:08;;;;;;;1.63;0.70;;;24.80;61.20;;;;;;4993178;28;20105;-57
2021/05/24 06:58:33;;;;;;;2.08;0.82;;;26.40;55.50;;;;;;4979339;28;20573;-59
2021/05/24 07:00:59;;;;;;;2.17;1.10;;;27.20;55.00;;;;;;5001603;28;20466;-59
2021/05/24 07:03:25;;;;;;;1.77;0.70;;;27.40;51.00;;;;;;5007611;28;20021;-57
2021/05/24 07:05:51;;;;;;;2.00;0.75;;;26.90;48.50;;;;;;4998286;28;20113;-58
2021/05/24 07:08:17;;;;;;;2.05;0.80;;;27.90;46.60;;;;;;4974886;28;20546;-59
2021/05/24 07:10:42;;;;;;;1.73;0.80;;;27.80;47.60;;;;;;5000716;28;20036;-58
2021/05/24 07:13:08;;;;;;;2.05;0.90;;;27.40;47.70;;;;;;5007996;28;20105;-57
2021/05/24 07:15:33;;;;;;;2.67;0.95;;;27.10;47.10;;;;;;4986041;28;20495;-56
2021/05/24 07:17:59;;;;;;;5.25;1.08;;;26.70;47.30;;;;;;4980641;28;20484;-58
2021/05/24 07:20:24;;;;;;;4.57;1.67;;;26.60;45.90;;;;;;4990105;28;20030;-56
2021/05/24 07:22:50;;;;;;;3.00;0.90;;;26.80;46.30;;;;;;4988184;28;20027;-57
2021/05/24 07:25:16;;;;;;;1.90;1.05;;;27.10;46.80;;;;;;4984761;28;20035;-60
2021/05/24 07:27:43;;;;;;;2.25;1.23;;;28.20;45.00;;;;;;4983869;28;20037;-60
2021/05/24 07:30:09;;;;;;;2.38;1.02;;;28.20;45.30;;;;;;4994258;28;20022;-57
2021/05/24 07:32:34;;;;;;;3.35;1.05;;;28.60;45.40;;;;;;4999086;28;20439;-58
2021/05/24 07:35:00;;;;;;;2.33;0.93;;;28.30;42.80;;;;;;4991646;28;20023;-59
2021/05/24 07:37:25;;;;;;;3.53;1.10;;;28.20;42.70;;;;;;4993196;28;20494;-60
2021/05/24 07:39:51;;;;;;;1.85;0.85;;;28.40;45.10;;;;;;4989268;28;20798;-59
2021/05/24 07:42:17;;;;;;;1.52;1.00;;;28.90;44.50;;;;;;4997066;28;20053;-59
2021/05/24 07:44:42;;;;;;;3.35;0.80;;;30.10;42.10;;;;;;4997197;28;20041;-58
2021/05/24 07:47:08;;;;;;;2.25;0.85;;;30.00;41.00;;;;;;4992537;28;20061;-58
2021/05/24 07:49:34;;;;;;;3.55;1.00;;;29.80;41.40;;;;;;4997021;28;20018;-59
2021/05/24 07:51:59;;;;;;;2.60;0.82;;;29.80;41.10;;;;;;4991332;28;20438;-60
2021/05/24 07:54:26;;;;;;;2.60;0.93;;;29.90;41.40;;;;;;4991836;28;20030;-58
2021/05/24 07:56:51;;;;;;;1.50;1.00;;;30.00;39.90;;;;;;4993340;28;20077;-58
2021/05/24 07:59:17;;;;;;;3.50;1.10;;;29.90;41.00;;;;;;4988510;28;20046;-57
2021/05/24 08:01:43;;;;;;;3.40;1.05;;;29.50;42.30;;;;;;5002561;28;20524;-58
2021/05/24 08:04:10;;;;;;;2.20;0.80;;;29.70;41.90;;;;;;5001087;28;20030;-59
2021/05/24 08:06:35;;;;;;;2.33;0.90;;;29.30;42.30;;;;;;4993498;28;20030;-58
2021/05/24 08:09:01;;;;;;;3.10;0.95;;;30.00;40.50;;;;;;4993046;28;20022;-59
2021/05/24 08:11:27;;;;;;;3.38;1.00;;;30.10;39.60;;;;;;4992921;28;20709;-58
2021/05/24 08:13:53;;;;;;;3.08;0.93;;;29.60;40.00;;;;;;4988348;28;20030;-56
2021/05/24 08:16:22;;;;;;;2.55;0.90;;;30.10;40.70;;;;;;4986695;28;20019;-57
2021/05/24 08:18:49;;;;;;;1.63;0.73;;;30.10;41.10;;;;;;4991144;28;20494;-58
2021/05/24 08:21:15;;;;;;;3.50;0.88;;;29.70;40.40;;;;;;4995568;28;20022;-56
2021/05/24 08:23:44;;;;;;;4.30;1.00;;;30.30;40.70;;;;;;4981268;28;20037;-59
2021/05/24 08:26:10;;;;;;;3.65;0.73;;;30.80;38.40;;;;;;4994086;28;20026;-58
2021/05/24 08:28:36;;;;;;;3.92;1.05;;;30.40;38.90;;;;;;4983221;28;20121;-60
2021/05/24 08:31:03;;;;;;;3.33;0.90;;;29.80;38.80;;;;;;4997556;28;20014;-56
2021/05/24 08:33:30;;;;;;;3.05;0.90;;;29.00;39.60;;;;;;4987238;28;20029;-59
2021/05/24 08:35:57;;;;;;;3.45;1.05;;;27.20;42.40;;;;;;4995381;28;20026;-59
2021/05/24 08:38:23;;;;;;;6.70;1.13;;;26.70;42.30;;;;;;4994205;28;20488;-58
2021/05/24 08:40:50;;;;;;;2.22;0.93;;;25.90;44.50;;;;;;4993137;28;20105;-56
2021/05/24 08:43:16;;;;;;;2.78;0.85;;;25.00;46.60;;;;;;4998052;28;20430;-59
2021/05/24 08:45:43;;;;;;;3.63;0.93;;;25.10;45.70;;;;;;4992149;28;20119;-59
2021/05/24 08:48:10;;;;;;;2.88;0.98;;;25.30;45.80;;;;;;4996751;28;20065;-58
2021/05/24 08:50:37;;;;;;;3.78;1.10;;;25.10;45.50;;;;;;4994394;28;20021;-58
2021/05/24 08:53:07;;;;;;;3.83;1.17;;;25.60;44.30;;;;;;4989704;28;20026;-58
2021/05/24 08:55:33;;;;;;;4.43;1.08;;;24.80;44.20;;;;;;4990996;28;20033;-58
2021/05/24 08:57:59;;;;;;;7.00;1.00;;;24.30;46.50;;;;;;4993461;28;20027;-59
2021/05/24 09:00:26;;;;;;;2.65;0.98;;;23.60;47.50;;;;;;4987610;28;20065;-58
2021/05/24 09:02:56;;;;;;;8.18;1.23;;;22.70;48.40;;;;;;4991730;28;20058;-55
2021/05/24 09:05:31;;;;;;;9.38;2.33;;;22.30;49.50;;;;;;5000560;28;20026;-57
2021/05/24 09:08:03;;;;;;;4.32;1.10;;;22.20;50.10;;;;;;4991308;28;20062;-55
2021/05/24 09:10:30;;;;;;;3.80;0.98;;;22.00;50.40;;;;;;4990821;28;20034;-57
2021/05/24 09:12:57;;;;;;;4.03;1.15;;;21.60;50.00;;;;;;5001583;28;20015;-59
2021/05/24 09:15:25;;;;;;;2.47;1.02;;;21.60;52.20;;;;;;4960514;28;20082;-57
2021/05/24 09:18:00;;;;;;;4.72;1.08;;;21.00;53.20;;;;;;4992807;28;20419;-57
2021/05/24 09:20:33;;;;;;;4.60;1.48;;;20.70;55.10;;;;;;4997804;28;20400;-57
2021/05/24 09:23:20;;;;;;;5.03;1.47;;;20.20;53.70;;;;;;4984856;28;20027;-57
2021/05/24 09:25:48;;;;;;;7.18;1.30;;;20.10;55.50;;;;;;4988948;28;20790;-58
2021/05/24 09:28:30;;;;;;;4.93;1.30;;;19.90;56.10;;;;;;4990537;28;20026;-58
2021/05/24 09:31:01;;;;;;;4.50;1.70;;;19.80;56.00;;;;;;5005609;28;20026;-57
2021/05/24 09:33:27;;;;;;;5.20;1.58;;;19.80;58.00;;;;;;5014824;28;20018;-59
2021/05/24 09:35:53;;;;;;;6.13;1.40;;;19.70;57.50;;;;;;4999066;28;20030;-58
2021/05/24 09:38:20;;;;;;;5.72;1.90;;;19.70;57.40;;;;;;5003304;28;20025;-58
2021/05/24 09:40:59;;;;;;;3.65;1.20;;;19.70;56.70;;;;;;5006956;28;20080;-59
2021/05/24 09:43:52;;;;;;;4.85;1.83;;;19.50;55.80;;;;;;5006352;28;20487;-58
2021/05/24 09:46:20;;;;;;;5.80;1.60;;;19.10;56.10;;;;;;4995647;28;20312;-58
2021/05/24 09:49:04;;;;;;;4.60;2.13;;;19.10;58.70;;;;;;5002786;28;20021;-58
2021/05/24 09:51:33;;;;;;;3.67;1.42;;;19.00;58.10;;;;;;5006543;28;20018;-56
2021/05/24 09:54:09;;;;;;;6.57;2.55;;;18.80;57.20;;;;;;5001081;28;20030;-56
2021/05/24 09:56:37;;;;;;;3.38;1.40;;;18.70;58.30;;;;;;4998381;28;20026;-58
2021/05/24 09:59:16;;;;;;;2.17;1.40;;;18.80;57.70;;;;;;5004516;28;20080;-59
2021/05/24 10:01:58;;;;;;;4.53;1.80;;;18.80;58.20;;;;;;4980312;28;20069;-58
2021/05/24 10:04:35;;;;;;;3.97;1.85;;;18.80;58.40;;;;;;4991255;28;20111;-58
2021/05/24 10:07:03;;;;;;;4.95;1.38;;;18.80;58.20;;;;;;4992216;28;20038;-56
2021/05/24 10:09:34;;;;;;;12.50;6.95;;;18.90;57.10;;;;;;4991196;28;20391;-58
2021/05/24 10:12:03;;;;;;;55.13;28.60;;;18.90;56.40;;;;;;4990661;28;20065;-57
2021/05/24 10:14:29;;;;;;;26.92;14.52;;;19.10;57.60;;;;;;4992289;28;20294;-57
2021/05/24 10:17:00;;;;;;;7.80;3.28;;;19.30;58.30;;;;;;4992581;28;20034;-58
2021/05/24 10:19:26;;;;;;;4.38;2.40;;;19.40;56.20;;;;;;4992482;28;20026;-57
2021/05/24 10:21:52;;;;;;;4.13;1.85;;;19.40;57.60;;;;;;4993017;28;20365;-57
2021/05/24 10:24:24;;;;;;;4.70;2.58;;;19.60;57.50;;;;;;4991929;28;20026;-55
2021/05/24 10:26:53;;;;;;;12.32;4.80;;;19.60;57.20;;;;;;4992373;28;20022;-54
2021/05/24 10:29:19;;;;;;;11.48;2.58;;;19.60;56.40;;;;;;4994670;28;20942;-57
2021/05/24 10:31:46;;;;;;;3.55;1.80;;;19.40;55.90;;;;;;4998970;28;20117;-57
2021/05/24 10:34:11;;;;;;;3.00;1.25;;;19.40;55.90;;;;;;4992526;28;20422;-57
2021/05/24 10:36:37;;;;;;;2.40;1.40;;;19.20;56.00;;;;;;4992572;28;20027;-57
2021/05/24 10:39:14;;;;;;;11.80;1.75;;;19.00;56.90;;;;;;4998826;28;20126;-56
2021/05/24 10:42:01;;;;;;;7.65;1.40;;;18.70;56.80;;;;;;4999074;28;20092;-57
2021/05/24 10:44:40;;;;;;;2.40;1.83;;;18.40;56.70;;;;;;4996731;28;20094;-57
2021/05/24 10:47:22;;;;;;;3.10;1.20;;;18.20;57.20;;;;;;4988556;28;20412;-56
2021/05/24 10:50:01;;;;;;;4.13;1.50;;;18.10;57.60;;;;;;4999857;28;20022;-56
2021/05/24 10:52:27;;;;;;;1.50;1.08;;;18.00;58.00;;;;;;4992016;28;20018;-54
2021/05/24 10:54:53;;;;;;;4.78;1.50;;;17.80;61.40;;;;;;4993125;28;20459;-54
2021/05/24 10:57:20;;;;;;;1.55;1.05;;;17.70;61.70;;;;;;4988415;28;20027;-57
2021/05/24 10:59:48;;;;;;;4.15;1.60;;;17.70;61.90;;;;;;4998391;28;20022;-58
2021/05/24 11:02:23;;;;;;;5.03;1.60;;;17.70;63.60;;;;;;4981005;28;20116;-55
2021/05/24 11:04:52;;;;;;;2.78;0.98;;;17.60;63.40;;;;;;4991386;28;20236;-55
2021/05/24 11:07:40;;;;;;;11.63;1.40;;;17.50;64.60;;;;;;4997268;28;20113;-55
2021/05/24 11:10:17;;;;;;;5.93;1.60;;;17.30;63.40;;;;;;4993524;28;20023;-57
2021/05/24 11:12:52;;;;;;;2.80;1.10;;;17.40;66.60;;;;;;4993272;28;20053;-54
2021/05/24 11:15:31;;;;;;;4.13;1.00;;;17.20;67.10;;;;;;4998623;28;20475;-57
2021/05/24 11:18:03;;;;;;;8.55;1.67;;;17.00;70.30;;;;;;4991938;28;20037;-54
2021/05/24 11:20:35;;;;;;;7.65;1.80;;;16.90;79.00;;;;;;4998242;28;20025;-55
2021/05/24 11:23:22;;;;;;;4.68;1.27;;;16.60;73.40;;;;;;4989705;28;20807;-58
2021/05/24 11:25:55;;;;;;;14.23;5.07;;;16.40;81.60;;;;;;4962334;28;20046;-55
2021/05/24 11:28:36;;;;;;;6.38;2.40;;;16.20;82.80;;;;;;4995459;28;20034;-58
2021/05/24 11:31:35;;;;;;;10.75;3.08;;;16.10;79.50;;;;;;4994826;28;20053;-55
2021/05/24 11:34:02;;;;;;;4.45;1.58;;;16.10;83.80;;;;;;4961802;28;20034;-57
2021/05/24 11:36:37;;;;;;;3.67;1.35;;;16.10;84.10;;;;;;5001189;28;20026;-57
2021/05/24 11:39:06;;;;;;;10.02;2.95;;;16.10;82.90;;;;;;4990775;28;20030;-55
2021/05/24 11:41:32;;;;;;;4.95;1.90;;;16.00;83.00;;;;;;4999647;28;20026;-55
2021/05/24 11:44:01;;;;;;;3.30;1.27;;;15.90;86.40;;;;;;4990680;28;20511;-57
2021/05/24 11:46:42;;;;;;;4.03;1.90;;;15.80;87.00;;;;;;4995234;28;20030;-57
2021/05/24 11:49:07;;;;;;;3.35;1.60;;;15.80;85.50;;;;;;4993718;28;20112;-58
2021/05/24 11:51:34;;;;;;;1.65;1.08;;;15.80;87.70;;;;;;4995289;28;20492;-56
2021/05/24 11:54:05;;;;;;;5.00;3.65;;;15.80;88.30;;;;;;4997795;28;20025;-58
2021/05/24 11:56:41;;;;;;;4.25;2.67;;;15.80;88.40;;;;;;5001610;28;20085;-56
2021/05/24 11:59:10;;;;;;;1.38;0.57;;;15.80;90.10;;;;;;5001587;28;20038;-60
2021/05/24 12:01:36;;;;;;;1.90;0.95;;;15.80;88.80;;;;;;4983387;28;20042;-59
2021/05/24 12:04:10;;;;;;;2.70;1.10;;;15.80;90.60;;;;;;5000550;28;20054;-56
2021/05/24 12:06:40;;;;;;;;;;;15.80;91.30;;;;;;5003858;28;20038;-56
2021/05/24 12:09:05;;;;;;;1.00;0.60;;;15.80;91.00;;;;;;4996042;28;19918;-59
2021/05/24 12:11:33;;;;;;;2.70;0.63;;;15.80;92.50;;;;;;5002084;28;20509;-57
2021/05/24 12:14:04;;;;;;;1.95;0.57;;;15.80;93.00;;;;;;4994793;28;20027;-59
2021/05/24 12:16:31;;;;;;;1.33;0.50;;;15.80;94.60;;;;;;5004239;28;20093;-58
2021/05/24 12:18:59;;;;;;;0.35;0.35;;;15.80;95.30;;;;;;4998624;28;20510;-59
2021/05/24 12:21:38;;;;;;;1.25;0.60;;;15.70;95.00;;;;;;4996437;28;20533;-59
2021/05/24 12:24:07;;;;;;;1.98;0.43;;;15.60;96.10;;;;;;4991518;28;20157;-54
2021/05/24 12:26:35;;;;;;;2.17;0.88;;;15.60;97.30;;;;;;4988105;28;20054;-57
2021/05/24 12:29:01;;;;;;;2.55;1.33;;;15.40;98.40;;;;;;4984092;28;20387;-57
2021/05/24 12:31:28;;;;;;;2.47;1.15;;;15.50;98.80;;;;;;4987918;28;20025;-59
2021/05/24 12:33:56;;;;;;;0.77;0.60;;;15.50;97.60;;;;;;4989364;28;20400;-56
2021/05/24 12:36:23;;;;;;;1.73;0.82;;;15.30;95.60;;;;;;4984680;28;20023;-58
2021/05/24 12:38:56;;;;;;;1.42;0.47;;;15.30;96.40;;;;;;4985649;28;20125;-59
2021/05/24 12:41:22;;;;;;;1.38;0.50;;;15.40;95.60;;;;;;4990807;28;20038;-58
2021/05/24 12:43:53;;;;;;;3.22;0.88;;;15.40;96.10;;;;;;4992389;28;20516;-60
2021/05/24 12:46:20;;;;;;;1.13;0.80;;;15.40;95.40;;;;;;5001010;28;20038;-56
2021/05/24 12:48:53;;;;;;;2.25;0.57;;;15.50;95.70;;;;;;5003623;28;20487;-56
2021/05/24 12:51:22;;;;;;;2.60;0.60;;;15.70;95.50;;;;;;4988575;28;20293;-57
2021/05/24 12:53:56;;;;;;;2.17;0.70;;;15.60;95.20;;;;;;4999090;28;20022;-56